Summertown, Georgia
Current Conditions -  °F | °C
As of 8:35 PM on Tuesday 21 Oct 2014 (Local Time) from KSBO Reporting Station
Haze Haze  
Wind Chill: 64°   Ceiling: Unl
Heat Index: 64°   Visibility: 5mi
Dew Point: 55°   Wind: 0mph
Humidity: 73%   Direction: NA
Pressure: 29.95"   Gusts: NA
Location:  32.75°N, 82.28°W
Report Text: KSBO 220035Z AUTO 00000KT 5SM HZ CLR 18/13 A2995 RMK AO2
Loading
Personal Weather Stations






























Interactive Weather Map
Tropical Storm Tracking
New forecast layout! Learn more

10-Day Weather Forecast

Advertisements
Track Severe Weather on mobile